Time;durP1;ratioP1;P1;durP2;ratioP2;P2;SDS_P1;SDS_P2;PMS_P1;PMS_P2;Temp;Humidity;BMP_temperature;BMP_pressure;BME280_temperature;BME280_humidity;BME280_pressure;Samples;Min_cycle;Max_cycle;Signal;HPM_P1;HPM_P2
2022/09/07 00:01:25;;;;;;;1.85;1.75;;;23.50;84.50;;;;;;5035590;28;20203;-72
2022/09/07 00:03:57;;;;;;;2.33;2.05;;;23.50;84.50;;;;;;5035279;28;20233;-72
2022/09/07 00:06:23;;;;;;;2.10;1.90;;;23.50;84.50;;;;;;5036185;28;20175;-73
2022/09/07 00:08:49;;;;;;;2.20;2.00;;;23.40;84.40;;;;;;5018336;28;20187;-72
2022/09/07 00:11:18;;;;;;;2.47;1.90;;;23.40;84.40;;;;;;5034184;28;20203;-72
2022/09/07 00:13:47;;;;;;;2.35;2.08;;;23.50;84.50;;;;;;5033617;28;20219;-72
2022/09/07 00:16:28;;;;;;;2.80;2.10;;;23.50;84.40;;;;;;5034812;28;20214;-73
2022/09/07 00:18:57;;;;;;;2.08;1.92;;;23.40;84.40;;;;;;5034320;28;20198;-72
2022/09/07 00:21:24;;;;;;;1.95;1.80;;;23.40;84.40;;;;;;5034614;28;20203;-72
2022/09/07 00:23:51;;;;;;;1.80;1.70;;;23.40;84.20;;;;;;5018151;28;20191;-72
2022/09/07 00:26:23;;;;;;;2.25;2.00;;;23.40;84.30;;;;;;5035382;28;20195;-72
2022/09/07 00:28:50;;;;;;;1.95;1.70;;;23.50;84.40;;;;;;5035408;28;20179;-72
2022/09/07 00:31:21;;;;;;;3.83;2.20;;;23.40;84.20;;;;;;5018585;28;20239;-72
2022/09/07 00:33:50;;;;;;;2.97;2.20;;;23.40;84.10;;;;;;5035701;28;20218;-72
2022/09/07 00:36:18;;;;;;;2.03;1.70;;;23.40;84.00;;;;;;5035050;28;20179;-72
2022/09/07 00:38:44;;;;;;;1.60;1.50;;;23.40;84.00;;;;;;5035914;28;20183;-72
2022/09/07 00:41:10;;;;;;;2.40;2.10;;;23.40;83.90;;;;;;5034564;28;20714;-72
2022/09/07 00:43:41;;;;;;;2.10;1.90;;;23.40;84.00;;;;;;5034271;28;20176;-72
2022/09/07 00:46:32;;;;;;;2.00;1.80;;;23.40;84.00;;;;;;5034717;28;20210;-72
2022/09/07 00:49:09;;;;;;;2.45;1.98;;;23.40;84.00;;;;;;5025311;28;20277;-72
2022/09/07 00:51:42;;;;;;;2.05;1.85;;;23.40;84.00;;;;;;5033294;28;20211;-72
2022/09/07 00:54:18;;;;;;;1.90;1.80;;;23.50;84.10;;;;;;5034286;28;20215;-72
2022/09/07 00:56:47;;;;;;;2.72;2.38;;;23.40;84.00;;;;;;5033418;28;20175;-72
2022/09/07 00:59:21;;;;;;;2.30;2.00;;;23.40;83.90;;;;;;5033426;28;20206;-72
2022/09/07 01:01:47;;;;;;;2.08;1.90;;;23.40;83.90;;;;;;5033112;28;20195;-73
2022/09/07 01:04:14;;;;;;;2.05;1.75;;;23.40;83.80;;;;;;5033992;28;20184;-72
2022/09/07 01:06:42;;;;;;;2.88;1.80;;;23.40;83.90;;;;;;5033131;28;20623;-72
2022/09/07 01:09:13;;;;;;;2.17;2.00;;;23.40;83.90;;;;;;5033493;28;20223;-72
2022/09/07 01:11:39;;;;;;;2.03;1.83;;;23.40;83.80;;;;;;5035277;28;20176;-72
2022/09/07 01:14:10;;;;;;;1.90;1.80;;;23.40;83.90;;;;;;5016215;28;20234;-72
2022/09/07 01:17:00;;;;;;;1.85;1.73;;;23.40;83.80;;;;;;5017247;28;20274;-72
2022/09/07 01:20:00;;;;;;;2.33;1.80;;;23.40;83.80;;;;;;5034132;28;20198;-73
2022/09/07 01:22:50;;;;;;;2.10;1.90;;;23.40;83.70;;;;;;5017580;28;20257;-72
2022/09/07 01:25:19;;;;;;;1.98;1.80;;;23.40;83.70;;;;;;5033383;28;20187;-73
2022/09/07 01:28:46;;;;;;;1.95;1.85;;;23.40;83.70;;;;;;5035462;28;20180;-72
2022/09/07 01:31:44;;;;;;;2.00;1.90;;;23.40;83.70;;;;;;4996307;28;20247;-73
2022/09/07 01:34:22;;;;;;;2.17;2.00;;;23.40;83.70;;;;;;4995959;28;20215;-72
2022/09/07 01:36:54;;;;;;;1.60;1.50;;;23.40;83.80;;;;;;5008819;28;20198;-72
2022/09/07 01:39:30;;;;;;;2.80;2.10;;;23.40;84.40;;;;;;5016962;28;20239;-72
2022/09/07 01:42:16;;;;;;;2.00;1.90;;;23.40;83.70;;;;;;5033137;28;20170;-72
2022/09/07 01:45:01;;;;;;;2.05;1.83;;;23.40;83.70;;;;;;5031965;28;20255;-72
2022/09/07 01:47:41;;;;;;;1.80;1.45;;;23.40;83.70;;;;;;5034043;28;20191;-72
2022/09/07 01:50:40;;;;;;;1.80;1.70;;;23.40;83.70;;;;;;5013321;28;20229;-73
2022/09/07 01:53:22;;;;;;;1.85;1.75;;;23.40;83.70;;;;;;5012822;28;20188;-72
2022/09/07 01:56:02;;;;;;;1.90;1.75;;;23.40;83.80;;;;;;5012798;28;20275;-72
2022/09/07 01:58:52;;;;;;;2.40;1.80;;;23.40;83.70;;;;;;5012864;28;20172;-72
2022/09/07 02:01:53;;;;;;;1.90;1.80;;;23.40;83.70;;;;;;5029863;28;20226;-73
2022/09/07 02:04:34;;;;;;;2.03;1.80;;;23.40;83.70;;;;;;5013557;28;20202;-73
2022/09/07 02:07:03;;;;;;;1.80;1.70;;;23.40;83.70;;;;;;5013791;28;20274;-72
2022/09/07 02:09:34;;;;;;;2.80;1.95;;;23.40;83.70;;;;;;5014809;28;20188;-72
2022/09/07 02:12:12;;;;;;;2.10;1.83;;;23.40;83.70;;;;;;5014576;28;20182;-72
2022/09/07 02:14:49;;;;;;;2.80;1.80;;;23.40;83.70;;;;;;5014154;28;20211;-72
2022/09/07 02:17:37;;;;;;;1.90;1.80;;;23.40;83.60;;;;;;5028447;28;20221;-72
2022/09/07 02:20:14;;;;;;;1.90;1.80;;;23.40;83.60;;;;;;5032476;28;20203;-73
2022/09/07 02:22:47;;;;;;;2.25;1.55;;;23.40;83.50;;;;;;5034015;28;20207;-72
2022/09/07 02:25:22;;;;;;;1.80;1.70;;;23.40;83.50;;;;;;5033916;28;20179;-72
2022/09/07 02:27:55;;;;;;;2.22;1.88;;;23.40;83.60;;;;;;5033076;28;20233;-72
2022/09/07 02:30:21;;;;;;;2.22;1.90;;;23.40;83.50;;;;;;5038850;28;20202;-73
2022/09/07 02:32:47;;;;;;;2.35;1.83;;;23.40;83.50;;;;;;5039767;28;20255;-72
2022/09/07 02:35:14;;;;;;;1.83;1.73;;;23.40;83.40;;;;;;5036437;28;20218;-73
2022/09/07 02:37:42;;;;;;;1.70;1.60;;;23.40;83.40;;;;;;5037777;28;20179;-73
2022/09/07 02:40:10;;;;;;;1.75;1.60;;;23.40;83.30;;;;;;5037675;28;20206;-72
2022/09/07 02:42:37;;;;;;;2.20;1.98;;;23.40;83.40;;;;;;5037049;28;20242;-72
2022/09/07 02:45:08;;;;;;;1.90;1.70;;;23.40;83.40;;;;;;5035594;28;20613;-73
2022/09/07 02:48:08;;;;;;;2.72;1.88;;;23.40;83.30;;;;;;5035831;28;20270;-72
2022/09/07 02:51:16;;;;;;;1.90;1.73;;;23.40;83.30;;;;;;5015919;28;20211;-72
2022/09/07 02:54:36;;;;;;;1.70;1.60;;;23.40;83.30;;;;;;4996955;28;20733;-72
2022/09/07 02:57:41;;;;;;;1.80;1.70;;;23.40;83.20;;;;;;4978924;28;20645;-72
2022/09/07 03:00:18;;;;;;;1.63;1.52;;;23.40;83.20;;;;;;5009932;28;20272;-72
2022/09/07 03:03:26;;;;;;;2.28;2.00;;;23.40;83.20;;;;;;5038018;28;20612;-72
2022/09/07 03:06:23;;;;;;;1.67;1.58;;;23.40;83.20;;;;;;5051790;28;20187;-72
2022/09/07 03:08:55;;;;;;;1.80;1.70;;;23.40;83.10;;;;;;5019407;28;20258;-72
2022/09/07 03:11:22;;;;;;;1.70;1.60;;;23.40;83.10;;;;;;5036175;28;20286;-72
2022/09/07 03:13:48;;;;;;;1.95;1.67;;;23.40;83.10;;;;;;5035121;28;20222;-72
2022/09/07 03:16:14;;;;;;;1.77;1.65;;;23.30;83.00;;;;;;5019393;28;20183;-72
2022/09/07 03:18:42;;;;;;;1.80;1.70;;;23.40;83.00;;;;;;5035648;28;20226;-72
2022/09/07 03:21:09;;;;;;;1.85;1.70;;;23.40;83.00;;;;;;5036000;28;20223;-72
2022/09/07 03:23:36;;;;;;;1.80;1.70;;;23.40;83.00;;;;;;5033612;28;20187;-72
2022/09/07 03:26:03;;;;;;;2.78;1.60;;;23.40;83.00;;;;;;5036903;28;20245;-72
2022/09/07 03:28:29;;;;;;;1.73;1.60;;;23.30;82.90;;;;;;5019116;28;20187;-72
2022/09/07 03:30:55;;;;;;;1.63;1.52;;;23.30;82.90;;;;;;5052328;28;20211;-72
2022/09/07 03:33:21;;;;;;;1.98;1.70;;;23.40;83.00;;;;;;5035174;28;20556;-72
2022/09/07 03:35:59;;;;;;;1.60;1.50;;;23.30;82.80;;;;;;5051315;28;20233;-73
2022/09/07 03:38:25;;;;;;;1.42;1.33;;;23.30;82.80;;;;;;5036868;28;20168;-72
2022/09/07 03:41:17;;;;;;;2.33;1.67;;;23.40;82.90;;;;;;5037187;28;20203;-72
2022/09/07 03:43:43;;;;;;;1.85;1.38;;;23.30;82.70;;;;;;5049519;28;20210;-72
2022/09/07 03:46:09;;;;;;;1.77;1.67;;;23.30;82.70;;;;;;5035754;28;20184;-72
2022/09/07 03:48:37;;;;;;;1.52;1.42;;;23.30;82.70;;;;;;5036551;28;20663;-72
2022/09/07 03:51:07;;;;;;;1.92;1.40;;;23.40;82.80;;;;;;5035068;28;20218;-72
2022/09/07 03:53:36;;;;;;;1.70;1.60;;;23.30;82.70;;;;;;5019260;28;20195;-72
2022/09/07 03:56:07;;;;;;;1.40;1.30;;;23.30;82.70;;;;;;5052061;28;20233;-72
2022/09/07 03:58:34;;;;;;;1.95;1.80;;;23.30;82.70;;;;;;5019490;28;20187;-72
2022/09/07 04:01:16;;;;;;;2.15;1.60;;;23.30;82.70;;;;;;5036439;28;20242;-72
2022/09/07 04:03:44;;;;;;;1.88;1.73;;;23.30;82.60;;;;;;5035085;28;20191;-72
2022/09/07 04:06:11;;;;;;;1.52;1.38;;;23.40;82.70;;;;;;5017709;28;20189;-72
2022/09/07 04:08:40;;;;;;;1.98;1.70;;;23.30;82.50;;;;;;5034811;28;20260;-72
2022/09/07 04:11:09;;;;;;;1.75;1.60;;;23.30;82.50;;;;;;5034983;28;20553;-72
2022/09/07 04:13:36;;;;;;;2.28;1.77;;;23.30;82.40;;;;;;5034667;28;20194;-72
2022/09/07 04:16:21;;;;;;;1.67;1.58;;;23.30;82.40;;;;;;5017391;28;20184;-72
2022/09/07 04:18:49;;;;;;;1.52;1.42;;;23.30;82.40;;;;;;5035794;28;20193;-72
2022/09/07 04:21:16;;;;;;;1.67;1.30;;;23.30;82.40;;;;;;5035238;28;20275;-72
2022/09/07 04:23:43;;;;;;;2.05;1.90;;;23.30;82.40;;;;;;5035114;28;20198;-72
2022/09/07 04:26:25;;;;;;;2.03;1.73;;;23.30;82.40;;;;;;5018451;28;20191;-72
2022/09/07 04:28:53;;;;;;;1.73;1.50;;;23.30;82.40;;;;;;5036064;28;20183;-72
2022/09/07 04:31:20;;;;;;;2.50;1.60;;;23.30;82.40;;;;;;5034436;28;20280;-72
2022/09/07 04:33:48;;;;;;;1.60;1.50;;;23.30;82.40;;;;;;5034083;28;20217;-72
2022/09/07 04:36:15;;;;;;;1.50;1.40;;;23.30;82.40;;;;;;5034616;28;20176;-72
2022/09/07 04:38:41;;;;;;;2.17;1.60;;;23.30;82.40;;;;;;5035480;28;20239;-72
2022/09/07 04:41:15;;;;;;;1.42;1.33;;;23.30;82.40;;;;;;5035389;28;20306;-72
2022/09/07 04:43:42;;;;;;;2.00;1.80;;;23.30;82.40;;;;;;5034269;28;20167;-72
2022/09/07 04:46:41;;;;;;;1.80;1.70;;;23.30;82.30;;;;;;5034517;28;20194;-73
2022/09/07 04:49:09;;;;;;;1.50;1.40;;;23.30;82.30;;;;;;5025382;28;20206;-72
2022/09/07 04:51:38;;;;;;;1.50;1.40;;;23.30;82.30;;;;;;5017116;28;20199;-73
2022/09/07 04:54:05;;;;;;;2.22;1.63;;;23.30;82.30;;;;;;5034366;28;20306;-72
2022/09/07 04:56:32;;;;;;;1.45;1.35;;;23.30;82.30;;;;;;5034856;28;20716;-72
2022/09/07 04:59:00;;;;;;;1.50;1.40;;;23.30;82.30;;;;;;5034193;28;20214;-72
2022/09/07 05:01:26;;;;;;;1.20;1.20;;;23.30;82.30;;;;;;5033594;28;20217;-72
2022/09/07 05:03:53;;;;;;;1.90;1.50;;;23.30;82.30;;;;;;5034089;28;20309;-72
2022/09/07 05:06:21;;;;;;;1.60;1.50;;;23.30;82.30;;;;;;5034597;28;20164;-72
2022/09/07 05:08:51;;;;;;;1.60;1.50;;;23.30;82.20;;;;;;5033541;28;20191;-72
2022/09/07 05:11:19;;;;;;;1.30;1.20;;;23.30;82.30;;;;;;5033261;28;20290;-72
2022/09/07 05:13:45;;;;;;;1.42;1.27;;;23.30;82.10;;;;;;5033480;28;20254;-72
2022/09/07 05:16:22;;;;;;;1.73;1.60;;;23.30;82.10;;;;;;5031857;28;20202;-72
2022/09/07 05:18:58;;;;;;;1.58;1.48;;;23.30;82.00;;;;;;5034437;28;20218;-72
2022/09/07 05:21:29;;;;;;;1.42;1.33;;;23.30;82.00;;;;;;5028545;28;20295;-72
2022/09/07 05:23:57;;;;;;;1.40;1.30;;;23.30;82.00;;;;;;5029390;28;20235;-71
2022/09/07 05:26:27;;;;;;;1.60;1.50;;;23.30;82.00;;;;;;5013118;28;20183;-72
2022/09/07 05:28:54;;;;;;;1.60;1.50;;;23.30;82.00;;;;;;5013912;28;20271;-72
2022/09/07 05:31:22;;;;;;;1.67;1.58;;;23.30;82.00;;;;;;4996873;28;20226;-72
2022/09/07 05:33:51;;;;;;;1.50;1.40;;;23.30;81.90;;;;;;5013893;28;20208;-72
2022/09/07 05:36:19;;;;;;;1.67;1.58;;;23.30;82.00;;;;;;5014207;28;20187;-72
2022/09/07 05:38:46;;;;;;;1.58;1.48;;;23.30;82.00;;;;;;5016799;28;20253;-71
2022/09/07 05:41:16;;;;;;;2.00;1.50;;;23.30;82.10;;;;;;5015742;28;20751;-72
2022/09/07 05:43:42;;;;;;;4.82;2.00;;;23.30;82.00;;;;;;5014115;28;20734;-71
2022/09/07 05:46:09;;;;;;;5.07;2.10;;;23.30;82.70;;;;;;5020764;28;20218;-71
2022/09/07 05:48:36;;;;;;;4.00;2.50;;;23.30;82.80;;;;;;5032698;28;20190;-71
2022/09/07 05:51:02;;;;;;;4.50;1.98;;;23.30;83.00;;;;;;5033384;28;20206;-71
2022/09/07 05:53:29;;;;;;;5.68;2.10;;;23.30;83.80;;;;;;5017233;28;20187;-71
2022/09/07 05:55:59;;;;;;;6.13;2.08;;;23.30;83.10;;;;;;5017514;28;20183;-71
2022/09/07 05:58:27;;;;;;;5.63;2.08;;;23.30;83.20;;;;;;5034918;28;20183;-71
2022/09/07 06:01:04;;;;;;;6.22;2.10;;;23.30;83.20;;;;;;5035593;28;20207;-72
2022/09/07 06:03:31;;;;;;;5.95;1.88;;;23.30;84.20;;;;;;5034244;28;20178;-72
2022/09/07 06:06:06;;;;;;;7.20;2.22;;;23.30;83.50;;;;;;5035104;28;20175;-72
2022/09/07 06:08:35;;;;;;;5.68;1.90;;;23.30;83.60;;;;;;5034874;28;20175;-72
2022/09/07 06:11:10;;;;;;;4.90;1.80;;;23.30;83.80;;;;;;5035937;28;20195;-71
2022/09/07 06:13:37;;;;;;;4.05;2.10;;;23.30;83.70;;;;;;5035243;28;20258;-72
2022/09/07 06:16:05;;;;;;;3.90;1.98;;;23.30;83.70;;;;;;5017513;28;20233;-71
2022/09/07 06:18:39;;;;;;;7.10;2.08;;;23.30;83.60;;;;;;5035075;28;20199;-71
2022/09/07 06:21:22;;;;;;;4.57;1.80;;;23.30;83.80;;;;;;5034354;28;20230;-71
2022/09/07 06:23:50;;;;;;;4.32;2.00;;;23.30;83.70;;;;;;5034744;28;20249;-71
2022/09/07 06:26:18;;;;;;;5.57;1.70;;;23.30;83.60;;;;;;5033570;28;20187;-72
2022/09/07 06:28:47;;;;;;;2.80;1.83;;;23.30;83.70;;;;;;5035878;28;20191;-71
2022/09/07 06:31:17;;;;;;;5.38;1.85;;;23.30;83.70;;;;;;5034263;28;20713;-72
2022/09/07 06:33:44;;;;;;;5.25;1.90;;;23.30;83.70;;;;;;5034205;28;20187;-72
2022/09/07 06:36:13;;;;;;;3.97;2.08;;;23.30;83.70;;;;;;5033352;28;20178;-71
2022/09/07 06:38:40;;;;;;;2.13;1.50;;;23.30;83.90;;;;;;5032853;28;20187;-71
2022/09/07 06:41:13;;;;;;;3.85;1.63;;;23.20;83.90;;;;;;5032411;28;20214;-71
2022/09/07 06:43:39;;;;;;;4.13;1.90;;;23.20;84.10;;;;;;5032732;28;20174;-71
2022/09/07 06:46:06;;;;;;;2.55;1.77;;;23.20;84.60;;;;;;5031802;28;20175;-71
2022/09/07 06:48:32;;;;;;;5.30;2.20;;;23.10;84.40;;;;;;5031990;28;20233;-72
2022/09/07 06:51:17;;;;;;;3.65;2.10;;;23.20;84.90;;;;;;5032767;28;20204;-71
2022/09/07 06:53:46;;;;;;;3.13;1.60;;;23.10;85.10;;;;;;5029697;28;20195;-71
2022/09/07 06:56:15;;;;;;;3.60;2.10;;;23.10;85.40;;;;;;5032649;28;20262;-71
2022/09/07 06:58:41;;;;;;;3.42;2.22;;;23.10;85.50;;;;;;5032304;28;20179;-71
2022/09/07 07:01:09;;;;;;;3.80;2.10;;;23.10;85.60;;;;;;5033818;28;20210;-71
2022/09/07 07:03:37;;;;;;;3.40;1.83;;;23.10;85.90;;;;;;5015329;28;20188;-72
2022/09/07 07:06:03;;;;;;;3.78;2.10;;;23.10;85.70;;;;;;5047655;28;20194;-71
2022/09/07 07:08:30;;;;;;;3.78;1.92;;;23.10;86.00;;;;;;5031324;28;20215;-71
2022/09/07 07:11:01;;;;;;;3.30;1.77;;;23.10;86.10;;;;;;5015287;28;20206;-71
2022/09/07 07:13:27;;;;;;;3.65;2.40;;;23.10;86.60;;;;;;5031759;28;20214;-72
2022/09/07 07:16:00;;;;;;;2.35;1.83;;;23.10;86.30;;;;;;5033355;28;20219;-71
2022/09/07 07:18:26;;;;;;;4.47;2.20;;;23.10;86.70;;;;;;5036513;28;20202;-71
2022/09/07 07:20:52;;;;;;;2.75;1.85;;;23.10;87.00;;;;;;5019932;28;20262;-71
2022/09/07 07:23:18;;;;;;;4.13;2.17;;;23.10;86.70;;;;;;5035728;28;20187;-71
2022/09/07 07:25:44;;;;;;;3.47;1.88;;;23.20;86.70;;;;;;5034294;28;20187;-71
2022/09/07 07:28:10;;;;;;;4.82;2.25;;;23.20;86.30;;;;;;5035734;28;20194;-71
2022/09/07 07:30:36;;;;;;;4.20;2.25;;;23.20;86.20;;;;;;5035307;28;20207;-71
2022/09/07 07:33:03;;;;;;;3.17;1.85;;;23.20;85.90;;;;;;5018514;28;20386;-71
2022/09/07 07:35:29;;;;;;;5.00;2.20;;;23.30;86.00;;;;;;5036765;28;20306;-72
2022/09/07 07:37:55;;;;;;;3.15;2.50;;;23.30;85.80;;;;;;5060497;28;20203;-72
2022/09/07 07:40:21;;;;;;;5.15;1.92;;;23.30;85.80;;;;;;5041328;28;20250;-72
2022/09/07 07:42:47;;;;;;;5.28;2.08;;;23.30;85.50;;;;;;5044247;28;20234;-72
2022/09/07 07:45:13;;;;;;;8.43;2.85;;;23.40;85.70;;;;;;5045003;28;20195;-72
2022/09/07 07:47:39;;;;;;;8.82;2.35;;;23.40;85.80;;;;;;5042812;28;20198;-72
2022/09/07 07:50:07;;;;;;;6.97;2.60;;;23.40;86.20;;;;;;5043926;28;20207;-71
2022/09/07 07:52:35;;;;;;;7.25;2.55;;;23.40;86.70;;;;;;5060995;28;20191;-72
2022/09/07 07:55:02;;;;;;;6.75;2.50;;;23.40;86.40;;;;;;5042494;28;20300;-72
2022/09/07 07:57:29;;;;;;;6.68;2.28;;;23.50;86.10;;;;;;5026683;28;20255;-72
2022/09/07 07:59:55;;;;;;;5.30;1.92;;;23.50;86.50;;;;;;5026628;28;20230;-72
2022/09/07 08:02:21;;;;;;;8.57;2.42;;;23.60;86.70;;;;;;5044056;28;20275;-72
2022/09/07 08:04:47;;;;;;;6.90;2.35;;;23.60;86.70;;;;;;5043598;28;20187;-72
2022/09/07 08:07:14;;;;;;;5.70;2.10;;;23.60;86.60;;;;;;5041995;28;20195;-72
2022/09/07 08:09:44;;;;;;;5.55;2.13;;;23.60;86.60;;;;;;5024903;28;20214;-72
2022/09/07 08:12:15;;;;;;;6.50;2.42;;;23.60;86.70;;;;;;5041264;28;20179;-72
2022/09/07 08:14:42;;;;;;;5.07;2.40;;;23.70;87.40;;;;;;5040792;28;20214;-72
2022/09/07 08:17:14;;;;;;;5.40;2.03;;;23.70;87.80;;;;;;5042928;28;20176;-72
2022/09/07 08:19:40;;;;;;;5.45;2.15;;;23.70;88.30;;;;;;5024121;28;20211;-72
2022/09/07 08:22:08;;;;;;;10.02;2.80;;;23.70;89.00;;;;;;5039063;28;20199;-72
2022/09/07 08:24:34;;;;;;;9.68;2.40;;;23.80;89.40;;;;;;5025338;28;20199;-71
2022/09/07 08:27:00;;;;;;;8.52;2.10;;;23.70;90.00;;;;;;5040479;28;20217;-72
2022/09/07 08:29:27;;;;;;;12.25;2.50;;;23.80;89.50;;;;;;5041259;28;20229;-72
2022/09/07 08:31:52;;;;;;;5.95;2.55;;;23.80;90.00;;;;;;5024705;28;20183;-71
2022/09/07 08:34:18;;;;;;;5.13;2.30;;;23.80;90.60;;;;;;5040620;28;20221;-71
2022/09/07 08:36:44;;;;;;;4.18;2.25;;;23.80;91.00;;;;;;5025036;28;20567;-72
2022/09/07 08:39:10;;;;;;;4.93;2.42;;;23.80;90.90;;;;;;5040431;28;20187;-71
2022/09/07 08:41:45;;;;;;;5.70;2.22;;;23.80;90.80;;;;;;5039637;28;20294;-72
2022/09/07 08:44:36;;;;;;;6.40;2.40;;;23.90;91.10;;;;;;5039375;28;20195;-72
2022/09/07 08:47:11;;;;;;;4.93;2.33;;;23.80;91.00;;;;;;5039591;28;20195;-71
2022/09/07 08:49:59;;;;;;;9.20;2.50;;;23.90;91.30;;;;;;5039897;28;20222;-72
2022/09/07 08:52:35;;;;;;;3.92;2.30;;;23.90;91.00;;;;;;5040291;28;20183;-72
2022/09/07 08:55:16;;;;;;;5.05;2.38;;;23.90;91.30;;;;;;5055552;28;20215;-72
2022/09/07 08:58:03;;;;;;;3.95;1.90;;;23.90;91.90;;;;;;5039627;28;20183;-72
2022/09/07 09:00:30;;;;;;;3.17;2.25;;;23.90;91.10;;;;;;5039438;28;20222;-71
2022/09/07 09:02:59;;;;;;;4.40;2.20;;;23.90;91.10;;;;;;5056486;28;20195;-72
2022/09/07 09:05:59;;;;;;;7.03;2.50;;;23.90;91.60;;;;;;5039968;28;20213;-72
2022/09/07 09:08:57;;;;;;;5.15;2.13;;;23.90;91.60;;;;;;5022583;28;20194;-72
2022/09/07 09:11:53;;;;;;;4.55;2.20;;;23.90;92.10;;;;;;5022367;28;20214;-72
2022/09/07 09:14:53;;;;;;;5.47;2.15;;;24.00;91.70;;;;;;5017573;28;20220;-71
2022/09/07 09:17:31;;;;;;;5.80;2.17;;;23.90;91.40;;;;;;5027948;28;20176;-72
2022/09/07 09:20:41;;;;;;;7.00;2.28;;;24.00;91.90;;;;;;5021024;28;20266;-72
2022/09/07 09:23:13;;;;;;;3.78;2.42;;;23.90;91.90;;;;;;5022918;28;20192;-73
2022/09/07 09:26:14;;;;;;;5.35;2.45;;;24.00;91.70;;;;;;5039924;28;20219;-73
2022/09/07 09:28:40;;;;;;;3.72;2.17;;;24.00;91.70;;;;;;5040339;28;20187;-75
2022/09/07 09:31:21;;;;;;;8.40;2.25;;;24.00;91.40;;;;;;5040066;28;20215;-72
2022/09/07 09:34:16;;;;;;;2.85;2.13;;;24.00;91.60;;;;;;5057251;28;20187;-72
2022/09/07 09:36:52;;;;;;;8.15;2.42;;;24.00;91.60;;;;;;5025227;28;20207;-72
2022/09/07 09:39:31;;;;;;;4.78;2.00;;;24.00;91.60;;;;;;5023096;28;20179;-71
2022/09/07 09:42:14;;;;;;;5.90;2.70;;;24.00;91.50;;;;;;5042116;28;20174;-71
2022/09/07 09:44:41;;;;;;;7.20;2.72;;;24.00;91.60;;;;;;5038812;28;20198;-72
2022/09/07 09:47:39;;;;;;;3.30;2.00;;;24.10;91.50;;;;;;5023213;28;20175;-72
2022/09/07 09:50:19;;;;;;;6.30;2.40;;;24.00;91.20;;;;;;5021534;28;20203;-71
2022/09/07 09:52:46;;;;;;;4.32;2.10;;;24.10;91.60;;;;;;5021318;28;20223;-71
2022/09/07 09:55:25;;;;;;;5.53;2.10;;;24.00;91.30;;;;;;5038654;28;20226;-72
2022/09/07 09:58:00;;;;;;;8.48;2.47;;;24.10;91.70;;;;;;5040032;28;20183;-73
2022/09/07 10:00:30;;;;;;;4.85;2.22;;;24.10;91.60;;;;;;5039191;28;20226;-72
2022/09/07 10:03:15;;;;;;;5.90;2.10;;;24.10;91.50;;;;;;5039959;28;20219;-72
2022/09/07 10:05:44;;;;;;;4.65;2.33;;;24.10;92.00;;;;;;5020725;28;20195;-72
2022/09/07 10:08:25;;;;;;;3.65;2.28;;;24.10;92.30;;;;;;5022804;28;20724;-71
2022/09/07 10:10:57;;;;;;;3.65;1.83;;;24.10;91.70;;;;;;5021984;28;20211;-72
2022/09/07 10:13:27;;;;;;;4.80;2.70;;;24.10;92.40;;;;;;5038524;28;20194;-71
2022/09/07 10:15:56;;;;;;;5.88;2.63;;;24.10;92.80;;;;;;5038092;28;20219;-72
2022/09/07 10:18:31;;;;;;;5.90;2.30;;;24.10;93.40;;;;;;5055217;28;20191;-72
2022/09/07 10:21:31;;;;;;;10.93;2.65;;;24.10;93.40;;;;;;5036013;28;20207;-71
2022/09/07 10:24:14;;;;;;;5.15;2.05;;;24.10;93.30;;;;;;5019259;28;20187;-71
2022/09/07 10:26:46;;;;;;;6.30;2.38;;;24.00;93.30;;;;;;5018735;28;20606;-71
2022/09/07 10:29:23;;;;;;;3.20;2.40;;;23.90;94.10;;;;;;5004223;28;20729;-71
2022/09/07 10:32:35;;;;;;;4.50;2.10;;;24.00;94.20;;;;;;5036057;28;20198;-71
2022/09/07 10:35:07;;;;;;;4.15;1.92;;;24.00;93.90;;;;;;5053081;28;20230;-71
2022/09/07 10:38:05;;;;;;;2.88;2.15;;;24.00;93.70;;;;;;5038619;28;20172;-71
2022/09/07 10:40:34;;;;;;;3.10;2.35;;;23.90;94.20;;;;;;5019746;28;20305;-70
2022/09/07 10:43:30;;;;;;;3.30;2.35;;;23.90;94.30;;;;;;5038823;28;20243;-71
2022/09/07 10:46:24;;;;;;;5.32;2.33;;;23.80;94.00;;;;;;5036354;28;20273;-70
2022/09/07 10:49:26;;;;;;;4.28;2.10;;;23.80;94.00;;;;;;5038085;28;20251;-70
2022/09/07 10:52:16;;;;;;;2.30;1.92;;;23.80;94.50;;;;;;5026335;28;20189;-71
2022/09/07 10:55:12;;;;;;;3.58;2.17;;;23.80;94.40;;;;;;5025254;28;20211;-71
2022/09/07 10:58:35;;;;;;;3.47;2.20;;;23.80;94.10;;;;;;5042476;28;20214;-72
2022/09/07 11:01:33;;;;;;;2.85;2.00;;;23.80;94.10;;;;;;5015822;28;20278;-71
2022/09/07 11:04:36;;;;;;;3.97;2.40;;;23.80;94.30;;;;;;5056906;28;20179;-71
2022/09/07 11:07:42;;;;;;;4.15;2.10;;;23.80;93.80;;;;;;5022354;28;20195;-71
2022/09/07 11:10:38;;;;;;;5.47;2.50;;;23.80;93.60;;;;;;5023485;28;20791;-70
2022/09/07 11:13:09;;;;;;;4.18;1.98;;;23.80;93.70;;;;;;5023706;28;20207;-70
2022/09/07 11:15:57;;;;;;;3.50;2.05;;;23.80;93.40;;;;;;5019419;28;20211;-70
2022/09/07 11:18:36;;;;;;;3.22;2.33;;;23.80;93.40;;;;;;5022646;28;20195;-71
2022/09/07 11:21:11;;;;;;;4.20;2.22;;;23.80;93.10;;;;;;5017424;28;20203;-70
2022/09/07 11:23:53;;;;;;;3.47;2.25;;;23.80;93.00;;;;;;5041047;28;20218;-71
2022/09/07 11:26:36;;;;;;;3.50;2.00;;;23.80;93.10;;;;;;5039757;28;20187;-71
2022/09/07 11:29:20;;;;;;;3.42;2.28;;;23.80;92.80;;;;;;5022929;28;20222;-70
2022/09/07 11:32:06;;;;;;;5.55;2.40;;;23.80;92.60;;;;;;5038105;28;20213;-71
2022/09/07 11:34:48;;;;;;;4.47;2.25;;;23.80;92.60;;;;;;5039036;28;20214;-70
2022/09/07 11:37:45;;;;;;;5.55;2.25;;;23.90;92.60;;;;;;5040517;28;20179;-71
2022/09/07 11:40:28;;;;;;;3.25;1.90;;;23.90;92.60;;;;;;5040293;28;20211;-70
2022/09/07 11:43:12;;;;;;;3.63;1.95;;;23.80;92.90;;;;;;5040060;28;20226;-71
2022/09/07 11:46:19;;;;;;;5.13;2.33;;;23.80;92.00;;;;;;5039337;28;20194;-71
2022/09/07 11:48:57;;;;;;;4.53;2.00;;;23.80;92.10;;;;;;5031999;28;20295;-71
2022/09/07 11:51:57;;;;;;;5.40;2.40;;;23.80;92.30;;;;;;5021595;28;20587;-71
2022/09/07 11:54:47;;;;;;;5.18;2.05;;;23.80;91.90;;;;;;5021999;28;20239;-70
2022/09/07 11:57:31;;;;;;;3.40;2.38;;;23.80;92.30;;;;;;5022276;28;20218;-71
2022/09/07 12:00:20;;;;;;;4.68;2.17;;;23.80;91.90;;;;;;5038620;28;20222;-71
2022/09/07 12:03:19;;;;;;;4.70;2.35;;;23.80;92.20;;;;;;5038255;28;20187;-71
2022/09/07 12:06:57;;;;;;;3.45;2.10;;;23.80;92.60;;;;;;5038161;28;20282;-70
2022/09/07 12:09:41;;;;;;;5.43;1.95;;;23.80;92.00;;;;;;5015846;28;20209;-71
2022/09/07 12:13:03;;;;;;;5.70;2.20;;;23.80;91.40;;;;;;5021765;28;20190;-72
2022/09/07 12:15:50;;;;;;;3.33;1.92;;;23.80;91.60;;;;;;5038021;28;20226;-70
2022/09/07 12:19:04;;;;;;;3.50;2.00;;;23.80;91.80;;;;;;5021788;28;20744;-71
2022/09/07 12:21:35;;;;;;;4.25;2.20;;;23.80;91.80;;;;;;5038352;28;20205;-71
2022/09/07 12:24:02;;;;;;;3.00;2.03;;;23.80;91.40;;;;;;5022193;28;20194;-71
2022/09/07 12:26:34;;;;;;;5.43;2.10;;;23.80;91.60;;;;;;5021677;28;20191;-70
2022/09/07 12:29:00;;;;;;;2.67;2.00;;;23.80;91.10;;;;;;5038502;28;20191;-71
2022/09/07 12:31:45;;;;;;;4.18;2.25;;;23.80;91.00;;;;;;5040055;28;20217;-71
2022/09/07 12:34:48;;;;;;;3.80;2.00;;;23.80;91.10;;;;;;5022225;28;20215;-71
2022/09/07 12:37:25;;;;;;;2.63;1.92;;;23.80;90.60;;;;;;5040611;28;20558;-70
2022/09/07 12:40:30;;;;;;;3.72;1.90;;;23.80;90.20;;;;;;5039365;28;20213;-71
2022/09/07 12:43:11;;;;;;;4.10;2.05;;;23.80;90.00;;;;;;5025980;28;20195;-72
2022/09/07 12:45:37;;;;;;;3.20;1.80;;;23.80;90.20;;;;;;5037615;28;20245;-70
2022/09/07 12:48:37;;;;;;;3.78;1.95;;;23.80;89.80;;;;;;5022459;28;20195;-71
2022/09/07 12:51:30;;;;;;;3.47;1.90;;;23.80;88.70;;;;;;5022265;28;20210;-71
2022/09/07 12:54:33;;;;;;;2.33;2.10;;;23.80;88.70;;;;;;5021536;28;20199;-71
2022/09/07 12:57:14;;;;;;;3.67;1.85;;;23.80;89.20;;;;;;5039275;28;20187;-73
2022/09/07 13:00:11;;;;;;;4.13;2.38;;;23.80;90.40;;;;;;5022790;28;20218;-71
2022/09/07 13:03:19;;;;;;;4.22;1.80;;;23.80;88.80;;;;;;5034444;28;20176;-71
2022/09/07 13:05:57;;;;;;;4.72;2.10;;;23.80;87.90;;;;;;5019943;28;20306;-70
2022/09/07 13:08:54;;;;;;;5.43;2.50;;;23.80;88.70;;;;;;5037052;28;20172;-71
2022/09/07 13:11:20;;;;;;;2.28;1.90;;;23.80;88.50;;;;;;5036493;28;20273;-71
2022/09/07 13:14:13;;;;;;;2.97;2.17;;;23.80;89.00;;;;;;5018304;28;20195;-72
2022/09/07 13:16:43;;;;;;;3.85;1.98;;;23.80;87.80;;;;;;5018936;28;20176;-71
2022/09/07 13:19:50;;;;;;;2.03;1.70;;;23.80;87.30;;;;;;5038698;28;20202;-72
2022/09/07 13:22:31;;;;;;;3.13;1.75;;;23.80;89.60;;;;;;4973605;28;20591;-71
2022/09/07 13:25:25;;;;;;;5.25;2.00;;;23.80;89.60;;;;;;5019152;28;20329;-70
2022/09/07 13:28:00;;;;;;;1.90;1.70;;;23.80;88.70;;;;;;5036757;28;20195;-71
2022/09/07 13:30:44;;;;;;;1.70;1.60;;;23.80;87.40;;;;;;5038059;28;20209;-71
2022/09/07 13:33:28;;;;;;;3.50;1.73;;;23.80;86.40;;;;;;5053149;28;20187;-71
2022/09/07 13:36:00;;;;;;;3.45;1.80;;;23.80;87.60;;;;;;5019754;28;20364;-70